createdAt,value
2019-03-31T00:01:49.499Z,72.23
2019-03-31T00:04:16.738Z,76.30
2019-03-31T00:06:44.085Z,72.13
2019-03-31T00:09:11.378Z,74.87
2019-03-31T00:11:38.623Z,74.20
2019-03-31T00:14:05.851Z,89.47
2019-03-31T00:16:33.200Z,75.87
2019-03-31T00:19:00.422Z,84.43
2019-03-31T00:21:27.756Z,89.00
2019-03-31T00:23:54.999Z,87.70
2019-03-31T00:26:22.236Z,86.37
2019-03-31T00:28:49.467Z,81.03
2019-03-31T00:31:22.399Z,95.00
2019-03-31T00:33:45.904Z,75.50
2019-03-31T00:36:13.145Z,85.37
2019-03-31T00:38:40.383Z,93.17
2019-03-31T00:41:07.637Z,98.63
2019-03-31T00:43:34.872Z,97.70
2019-03-31T00:46:02.225Z,99.10
2019-03-31T00:48:29.843Z,97.77
2019-03-31T00:50:57.088Z,93.40
2019-03-31T00:53:24.327Z,95.77
2019-03-31T00:55:51.584Z,90.30
2019-03-31T00:58:19.283Z,95.37
2019-03-31T01:01:05.273Z,105.03
2019-03-31T01:03:34.373Z,102.07
2019-03-31T01:06:02.091Z,99.63
2019-03-31T01:08:32.959Z,107.40
2019-03-31T01:11:04.504Z,108.57
2019-03-31T01:13:32.727Z,103.03
2019-03-31T01:16:01.074Z,103.10
2019-03-31T01:18:28.912Z,100.63
2019-03-31T01:20:56.240Z,106.67
2019-03-31T01:23:23.574Z,109.07
2019-03-31T01:25:51.218Z,100.07
2019-03-31T01:28:18.478Z,105.07
2019-03-31T01:30:45.923Z,108.23
2019-03-31T01:33:13.280Z,108.00
2019-03-31T01:35:40.515Z,100.97
2019-03-31T01:38:08.181Z,108.03
2019-03-31T01:40:35.587Z,107.43
2019-03-31T01:43:03.223Z,106.73
2019-03-31T01:45:30.451Z,104.43
2019-03-31T01:47:57.791Z,108.50
2019-03-31T01:50:26.343Z,108.83
2019-03-31T01:52:53.646Z,109.40
2019-03-31T01:55:20.939Z,107.30
2019-03-31T01:57:48.171Z,107.57
2019-03-31T02:00:35.667Z,107.30
2019-03-31T02:03:03.128Z,102.60
2019-03-31T02:05:30.470Z,100.67
2019-03-31T02:07:57.696Z,109.07
2019-03-31T02:10:24.949Z,105.23
2019-03-31T02:12:52.191Z,103.43
2019-03-31T02:15:19.439Z,108.57
2019-03-31T02:17:46.679Z,101.13
2019-03-31T02:20:13.907Z,105.23
2019-03-31T02:22:41.146Z,105.50
2019-03-31T02:25:08.595Z,104.87
2019-03-31T02:27:35.841Z,107.93
2019-03-31T02:30:03.677Z,103.20
2019-03-31T02:32:30.931Z,106.57
2019-03-31T02:34:58.181Z,106.33
2019-03-31T02:37:25.407Z,106.53
2019-03-31T02:39:52.759Z,106.33
2019-03-31T02:42:19.991Z,110.17
2019-03-31T02:44:47.242Z,108.43
2019-03-31T02:47:14.491Z,100.87
2019-03-31T02:49:41.744Z,102.53
2019-03-31T02:52:09.196Z,110.33
2019-03-31T02:54:36.650Z,104.87
2019-03-31T02:57:04.464Z,101.83
2019-03-31T02:59:31.994Z,99.57
2019-03-31T03:02:01.263Z,102.00
2019-03-31T03:04:30.892Z,106.67
2019-03-31T03:07:01.560Z,101.97
2019-03-31T03:09:31.104Z,102.77
2019-03-31T03:11:59.751Z,104.57
2019-03-31T03:14:28.998Z,100.03
2019-03-31T03:16:56.326Z,105.67
2019-03-31T03:19:23.559Z,106.03
2019-03-31T03:21:50.802Z,106.60
2019-03-31T03:24:18.148Z,104.03
2019-03-31T03:26:45.383Z,108.20
2019-03-31T03:29:12.621Z,107.00
2019-03-31T03:31:39.874Z,111.13
2019-03-31T03:34:07.113Z,109.43
2019-03-31T03:36:34.485Z,112.17
2019-03-31T03:39:02.309Z,113.13
2019-03-31T03:41:29.568Z,113.53
2019-03-31T03:44:01.956Z,106.43
2019-03-31T03:46:25.972Z,103.03
2019-03-31T03:48:53.359Z,110.90
2019-03-31T03:51:20.652Z,113.63
2019-03-31T03:53:47.904Z,111.27
2019-03-31T03:56:15.146Z,117.53
2019-03-31T03:58:42.480Z,109.27
2019-03-31T04:01:14.896Z,110.73
2019-03-31T04:03:42.124Z,111.63
2019-03-31T04:06:09.559Z,110.30
2019-03-31T04:08:36.807Z,106.30
2019-03-31T04:11:32.324Z,115.37
2019-03-31T04:13:59.559Z,113.30
2019-03-31T04:16:27.611Z,115.73
2019-03-31T04:18:55.016Z,112.53
2019-03-31T04:21:22.493Z,113.77
2019-03-31T04:23:49.754Z,112.07
2019-03-31T04:26:17.066Z,108.87
2019-03-31T04:28:44.502Z,107.03
2019-03-31T04:31:11.920Z,115.33
2019-03-31T04:33:50.464Z,109.70
2019-03-31T04:36:08.318Z,103.87
2019-03-31T04:38:35.564Z,110.93
2019-03-31T04:41:03.456Z,109.63
2019-03-31T04:43:30.716Z,112.10
2019-03-31T04:45:58.171Z,108.00
2019-03-31T04:48:25.437Z,110.17
2019-03-31T04:50:52.668Z,104.93
2019-03-31T04:53:20.148Z,104.60
2019-03-31T04:55:47.388Z,104.13
2019-03-31T04:58:14.635Z,111.03
2019-03-31T05:00:41.887Z,106.30
2019-03-31T05:03:09.156Z,100.83
2019-03-31T05:05:36.398Z,106.37
2019-03-31T05:08:03.739Z,113.47
2019-03-31T05:10:30.986Z,100.43
2019-03-31T05:12:58.259Z,105.93
2019-03-31T05:15:25.495Z,104.30
2019-03-31T05:17:52.753Z,101.10
2019-03-31T05:20:19.991Z,97.73
2019-03-31T05:22:47.225Z,99.17
2019-03-31T05:25:14.471Z,97.57
2019-03-31T05:27:41.723Z,105.00
2019-03-31T05:30:15.012Z,96.53
2019-03-31T05:32:42.252Z,96.97
2019-03-31T05:35:09.935Z,93.37
2019-03-31T05:37:50.251Z,95.83
2019-03-31T05:40:06.520Z,93.70
2019-03-31T05:42:33.768Z,89.13
2019-03-31T05:45:01.019Z,85.77
2019-03-31T05:47:28.266Z,81.83
2019-03-31T05:49:55.553Z,83.13
2019-03-31T05:52:22.796Z,84.67
2019-03-31T05:54:50.039Z,74.70
2019-03-31T05:57:17.304Z,75.73
2019-03-31T05:59:44.540Z,79.33
2019-03-31T06:02:11.775Z,82.30
2019-03-31T06:04:39.023Z,73.77
2019-03-31T06:07:06.257Z,76.77
2019-03-31T06:09:33.601Z,66.23
2019-03-31T06:12:00.939Z,69.87
2019-03-31T06:14:28.176Z,72.30
2019-03-31T06:16:55.419Z,65.87
2019-03-31T06:19:22.661Z,68.17
2019-03-31T06:21:49.901Z,64.97
2019-03-31T06:24:17.148Z,60.00
2019-03-31T06:26:44.415Z,57.70
2019-03-31T06:29:11.659Z,57.67
2019-03-31T06:31:38.904Z,58.27
2019-03-31T06:34:06.147Z,56.40
2019-03-31T06:36:33.395Z,53.63
2019-03-31T06:39:00.650Z,52.17
2019-03-31T06:41:27.955Z,51.50
2019-03-31T06:43:55.229Z,55.13
2019-03-31T06:46:22.463Z,53.13
2019-03-31T06:48:49.728Z,48.10
2019-03-31T06:51:17.303Z,49.80
2019-03-31T06:53:44.835Z,50.40
2019-03-31T06:56:12.115Z,49.10
2019-03-31T06:58:39.344Z,49.93
2019-03-31T07:01:06.608Z,50.93
2019-03-31T07:03:33.864Z,49.93
2019-03-31T07:06:01.227Z,50.53
2019-03-31T07:08:28.771Z,46.83
2019-03-31T07:10:56.024Z,45.33
2019-03-31T07:13:23.251Z,48.67
2019-03-31T07:15:50.510Z,39.07
2019-03-31T07:18:18.207Z,45.23
2019-03-31T07:20:45.463Z,42.97
2019-03-31T07:23:12.711Z,46.20
2019-03-31T07:25:40.063Z,40.17
2019-03-31T07:28:07.673Z,42.30
2019-03-31T07:30:34.926Z,38.40
2019-03-31T07:33:02.271Z,38.53
2019-03-31T07:35:29.515Z,41.37
2019-03-31T07:37:56.751Z,41.63
2019-03-31T07:40:24.248Z,40.03
2019-03-31T07:42:51.594Z,39.27
2019-03-31T07:45:19.356Z,42.33
2019-03-31T07:47:46.799Z,40.20
2019-03-31T07:50:15.207Z,40.73
2019-03-31T07:52:42.563Z,37.57
2019-03-31T07:55:11.455Z,38.20
2019-03-31T07:57:39.010Z,42.37
2019-03-31T08:00:10.411Z,39.63
2019-03-31T08:02:37.655Z,40.10
2019-03-31T08:05:06.494Z,43.83
2019-03-31T08:07:33.991Z,41.20
2019-03-31T08:10:01.335Z,37.83
2019-03-31T08:12:28.687Z,43.70
2019-03-31T08:14:56.319Z,35.87
2019-03-31T08:17:23.604Z,35.50
2019-03-31T08:19:51.036Z,38.90
2019-03-31T08:22:18.292Z,38.17
2019-03-31T08:24:45.532Z,38.07
2019-03-31T08:27:13.700Z,43.00
2019-03-31T08:29:41.227Z,35.07
2019-03-31T08:32:09.200Z,43.00
2019-03-31T08:34:36.551Z,38.93
2019-03-31T08:37:03.890Z,40.43
2019-03-31T08:39:31.127Z,37.67
2019-03-31T08:41:58.360Z,38.97
2019-03-31T08:44:25.603Z,35.77
2019-03-31T08:46:52.855Z,38.93
2019-03-31T08:49:20.079Z,34.50
2019-03-31T08:51:47.325Z,33.67
2019-03-31T08:54:14.561Z,35.37
2019-03-31T08:56:41.813Z,36.60
2019-03-31T08:59:09.051Z,30.17
2019-03-31T09:01:36.296Z,25.33
2019-03-31T09:04:03.651Z,24.63
2019-03-31T09:06:30.899Z,24.93
2019-03-31T09:08:58.154Z,20.73
2019-03-31T09:11:25.483Z,22.40
2019-03-31T09:13:52.723Z,23.23
2019-03-31T09:16:20.296Z,26.17
2019-03-31T09:18:47.530Z,21.17
2019-03-31T09:21:14.881Z,24.70
2019-03-31T09:23:42.116Z,20.47
2019-03-31T09:26:09.447Z,22.50
2019-03-31T09:28:36.691Z,22.37
2019-03-31T09:31:04.031Z,22.47
2019-03-31T09:33:31.283Z,20.70
2019-03-31T09:35:58.519Z,21.53
2019-03-31T09:38:25.757Z,21.63
2019-03-31T09:40:53.007Z,22.43
2019-03-31T09:43:20.251Z,25.57
2019-03-31T09:45:47.488Z,21.87
2019-03-31T09:48:15.194Z,20.43
2019-03-31T09:50:42.472Z,20.57
2019-03-31T09:53:09.725Z,20.87
2019-03-31T09:55:36.979Z,21.87
2019-03-31T09:58:04.323Z,21.77
2019-03-31T10:00:42.941Z,23.63
2019-03-31T10:03:10.235Z,19.90
2019-03-31T10:05:37.489Z,19.63
2019-03-31T10:08:04.733Z,19.23
2019-03-31T10:10:32.483Z,22.60
2019-03-31T10:13:00.217Z,20.03
2019-03-31T10:15:27.563Z,21.63
2019-03-31T10:17:54.815Z,22.90
2019-03-31T10:20:22.232Z,19.27
2019-03-31T10:22:49.467Z,19.30
2019-03-31T10:25:16.715Z,18.07
2019-03-31T10:27:43.965Z,18.80
2019-03-31T10:30:27.573Z,18.73
2019-03-31T10:32:54.815Z,17.97
2019-03-31T10:35:22.067Z,17.40
2019-03-31T10:37:49.333Z,17.67
2019-03-31T10:40:16.784Z,19.90
2019-03-31T10:42:44.019Z,17.30
2019-03-31T10:45:12.525Z,16.40
2019-03-31T10:47:39.779Z,16.80
2019-03-31T10:50:07.499Z,16.37
2019-03-31T10:52:34.887Z,26.20
2019-03-31T10:55:02.584Z,20.10
2019-03-31T10:57:29.846Z,14.63
2019-03-31T10:59:57.459Z,14.77
2019-03-31T11:02:24.699Z,15.03
2019-03-31T11:04:51.950Z,17.33
2019-03-31T11:07:19.199Z,19.93
2019-03-31T11:09:46.439Z,20.70
2019-03-31T11:12:13.687Z,17.37
2019-03-31T11:14:40.947Z,15.23
2019-03-31T11:17:08.203Z,17.13
2019-03-31T11:19:35.492Z,18.60
2019-03-31T11:22:10.203Z,17.93
2019-03-31T11:24:37.436Z,18.37
2019-03-31T11:27:04.667Z,20.40
2019-03-31T11:29:31.928Z,22.97
2019-03-31T11:31:59.174Z,20.33
2019-03-31T11:34:26.412Z,17.37
2019-03-31T11:36:53.651Z,18.77
2019-03-31T11:39:20.911Z,19.23
2019-03-31T11:41:48.163Z,18.60
2019-03-31T11:44:15.404Z,22.07
2019-03-31T11:46:42.663Z,22.87
2019-03-31T11:49:09.917Z,18.07
2019-03-31T11:51:37.168Z,19.37
2019-03-31T11:54:04.432Z,17.43
2019-03-31T11:56:31.671Z,20.83
2019-03-31T11:58:58.924Z,19.60
2019-03-31T12:01:26.167Z,23.57
2019-03-31T12:03:53.407Z,20.87
2019-03-31T12:06:20.747Z,24.53
2019-03-31T12:08:47.991Z,22.20
2019-03-31T12:11:15.227Z,20.80
2019-03-31T12:13:42.580Z,22.40
2019-03-31T12:16:09.839Z,19.50
2019-03-31T12:18:37.184Z,26.33
2019-03-31T12:21:04.419Z,19.40
2019-03-31T12:23:31.659Z,20.50
2019-03-31T12:25:58.896Z,21.13
2019-03-31T12:28:26.143Z,20.47
2019-03-31T12:30:53.404Z,18.17
2019-03-31T12:33:20.643Z,18.57
2019-03-31T12:36:07.368Z,18.20
2019-03-31T12:38:34.608Z,17.00
2019-03-31T12:41:01.840Z,20.17
2019-03-31T12:43:48.470Z,17.67
2019-03-31T12:46:16.032Z,19.73
2019-03-31T12:48:43.275Z,17.80
2019-03-31T12:51:10.950Z,13.97
2019-03-31T12:53:38.195Z,16.03
2019-03-31T12:56:05.450Z,14.80
2019-03-31T12:58:32.927Z,15.20
2019-03-31T13:01:00.580Z,13.83
2019-03-31T13:03:27.835Z,14.90
2019-03-31T13:05:55.168Z,14.90
2019-03-31T13:08:22.406Z,13.17
2019-03-31T13:10:49.640Z,17.50
2019-03-31T13:13:16.867Z,13.13
2019-03-31T13:15:44.205Z,13.73
2019-03-31T13:18:11.419Z,14.40
2019-03-31T13:20:38.759Z,13.07
2019-03-31T13:23:06.192Z,11.93
2019-03-31T13:25:33.921Z,13.73
2019-03-31T13:28:01.166Z,12.50
2019-03-31T13:30:29.595Z,11.97
2019-03-31T13:32:56.844Z,11.77
2019-03-31T13:35:24.177Z,13.33
2019-03-31T13:37:51.419Z,15.77
2019-03-31T13:40:18.755Z,14.37
2019-03-31T13:42:46.087Z,13.00
2019-03-31T13:45:13.779Z,12.13
2019-03-31T13:47:41.095Z,13.40
2019-03-31T13:50:09.294Z,11.37
2019-03-31T13:52:36.531Z,13.20
2019-03-31T13:55:07.185Z,11.67
2019-03-31T13:57:35.176Z,11.37
2019-03-31T14:00:04.542Z,12.30
2019-03-31T14:02:31.763Z,12.50
2019-03-31T14:04:58.991Z,12.27
2019-03-31T14:07:26.327Z,14.77
2019-03-31T14:09:53.559Z,12.57
2019-03-31T14:12:20.856Z,11.43
2019-03-31T14:14:48.193Z,11.07
2019-03-31T14:17:15.439Z,10.63
2019-03-31T14:19:43.088Z,10.80
2019-03-31T14:22:10.316Z,11.17
2019-03-31T14:24:37.547Z,9.77
2019-03-31T14:27:04.885Z,9.77
2019-03-31T14:29:32.123Z,7.70
2019-03-31T14:31:59.379Z,8.93
2019-03-31T14:34:26.724Z,8.00
2019-03-31T14:36:54.055Z,7.93
2019-03-31T14:39:21.404Z,9.53
2019-03-31T14:41:48.751Z,8.73
2019-03-31T14:44:15.992Z,10.83
2019-03-31T14:46:43.241Z,8.50
2019-03-31T14:49:10.477Z,9.20
2019-03-31T14:51:37.725Z,9.53
2019-03-31T14:54:05.033Z,9.40
2019-03-31T14:56:32.291Z,10.70
2019-03-31T14:58:59.531Z,7.53
2019-03-31T15:01:26.785Z,9.57
2019-03-31T15:03:54.135Z,8.27
2019-03-31T15:06:21.374Z,7.37
2019-03-31T15:08:54.608Z,9.27
2019-03-31T15:11:18.092Z,10.07
2019-03-31T15:13:45.335Z,6.50
2019-03-31T15:16:12.579Z,6.80
2019-03-31T15:18:39.834Z,8.23
2019-03-31T15:21:07.171Z,7.93
2019-03-31T15:23:34.400Z,7.00
2019-03-31T15:26:01.749Z,7.53
2019-03-31T15:28:29.007Z,7.37
2019-03-31T15:30:56.247Z,7.90
2019-03-31T15:33:23.477Z,5.90
2019-03-31T15:35:50.735Z,10.43
2019-03-31T15:38:18.293Z,10.17
2019-03-31T15:40:48.382Z,8.50
2019-03-31T15:43:14.768Z,7.83
2019-03-31T15:45:42.111Z,9.03
2019-03-31T15:48:09.356Z,7.87
2019-03-31T15:50:36.591Z,7.80
2019-03-31T15:53:03.948Z,10.27
2019-03-31T15:55:31.207Z,10.03
2019-03-31T15:57:58.871Z,10.10
2019-03-31T16:00:26.310Z,11.90
2019-03-31T16:02:53.546Z,9.17
2019-03-31T16:05:20.874Z,10.10
2019-03-31T16:07:47.694Z,9.57
2019-03-31T16:10:15.208Z,9.70
2019-03-31T16:12:42.447Z,7.93
2019-03-31T16:15:09.643Z,7.93
2019-03-31T16:17:36.371Z,6.50
2019-03-31T16:20:04.601Z,7.33
2019-03-31T16:22:31.471Z,8.63
2019-03-31T16:24:59.391Z,7.17
2019-03-31T16:27:26.109Z,11.00
2019-03-31T16:29:52.807Z,9.57
2019-03-31T16:32:19.520Z,7.77
2019-03-31T16:34:46.215Z,8.73
2019-03-31T16:37:13.391Z,7.37
2019-03-31T16:39:40.123Z,7.03
2019-03-31T16:42:06.903Z,9.50
2019-03-31T16:44:33.643Z,8.00
2019-03-31T16:47:00.344Z,8.60
2019-03-31T16:49:27.074Z,8.10
2019-03-31T16:51:54.107Z,8.80
2019-03-31T16:54:20.804Z,8.27
2019-03-31T16:56:47.496Z,6.90
2019-03-31T16:59:14.195Z,7.47
2019-03-31T17:01:40.917Z,9.97
2019-03-31T17:04:07.619Z,8.47
2019-03-31T17:06:34.319Z,6.10
2019-03-31T17:09:01.030Z,6.63
2019-03-31T17:11:27.727Z,8.13
2019-03-31T17:13:54.447Z,6.37
2019-03-31T17:16:21.291Z,6.37
2019-03-31T17:18:48.088Z,7.13
2019-03-31T17:21:15.687Z,10.43
2019-03-31T17:23:42.391Z,9.80
2019-03-31T17:26:09.353Z,7.87
2019-03-31T17:28:36.047Z,10.30
2019-03-31T17:31:02.852Z,7.10
2019-03-31T17:33:30.387Z,10.70
2019-03-31T17:35:57.499Z,8.73
2019-03-31T17:38:24.316Z,8.03
2019-03-31T17:40:51.166Z,8.67
2019-03-31T17:43:17.868Z,11.13
2019-03-31T17:45:44.565Z,7.83
2019-03-31T17:48:11.287Z,9.03
2019-03-31T17:50:37.998Z,9.40
2019-03-31T17:53:04.700Z,9.87
2019-03-31T17:55:31.412Z,10.97
2019-03-31T17:57:58.095Z,8.13
2019-03-31T18:00:25.384Z,9.63
2019-03-31T18:02:52.094Z,7.83
2019-03-31T18:05:18.800Z,12.10
2019-03-31T18:07:45.520Z,9.17
2019-03-31T18:10:20.682Z,8.50
2019-03-31T18:12:41.159Z,10.93
2019-03-31T18:15:08.278Z,8.57
2019-03-31T18:17:34.992Z,9.83
2019-03-31T18:20:01.972Z,11.97
2019-03-31T18:22:28.679Z,7.63
2019-03-31T18:24:55.383Z,9.73
2019-03-31T18:27:22.092Z,9.50
2019-03-31T18:29:48.808Z,7.63
2019-03-31T18:32:15.518Z,11.03
2019-03-31T18:34:42.334Z,7.77
2019-03-31T18:37:09.029Z,8.77
2019-03-31T18:39:36.007Z,8.87
2019-03-31T18:42:02.930Z,11.00
2019-03-31T18:44:29.607Z,10.30
2019-03-31T18:46:56.298Z,8.80
2019-03-31T18:49:23.103Z,6.43
2019-03-31T18:51:49.815Z,8.80
2019-03-31T18:54:23.996Z,8.27
2019-03-31T18:57:01.475Z,8.90
2019-03-31T18:59:49.719Z,9.63
2019-03-31T19:02:34.956Z,10.83
2019-03-31T19:05:24.653Z,10.93
2019-03-31T19:08:10.180Z,10.43
2019-03-31T19:10:54.323Z,8.60
2019-03-31T19:13:55.123Z,8.37
2019-03-31T19:16:40.231Z,8.43
2019-03-31T19:19:35.671Z,9.17
2019-03-31T19:22:21.079Z,11.40
2019-03-31T19:25:06.017Z,7.20
2019-03-31T19:27:58.344Z,8.40
2019-03-31T19:30:43.736Z,11.90
2019-03-31T19:33:34.956Z,10.63
2019-03-31T19:36:12.249Z,13.13
2019-03-31T19:38:57.163Z,7.70
2019-03-31T19:41:43.659Z,12.60
2019-03-31T19:44:44.709Z,9.13
2019-03-31T19:47:29.455Z,6.93
2019-03-31T19:50:03.892Z,9.03
2019-03-31T19:52:41.180Z,10.37
2019-03-31T19:55:30.539Z,14.33
2019-03-31T19:58:30.255Z,9.40
2019-03-31T20:01:22.247Z,8.23
2019-03-31T20:04:27.248Z,11.50
2019-03-31T20:07:12.147Z,13.00
2019-03-31T20:10:00.548Z,8.80
2019-03-31T20:13:01.719Z,10.23
2019-03-31T20:15:52.196Z,8.30
2019-03-31T20:18:29.341Z,7.80
2019-03-31T20:21:31.422Z,8.60
2019-03-31T20:24:04.340Z,6.97
2019-03-31T20:26:40.395Z,8.90
2019-03-31T20:29:33.447Z,18.57
2019-03-31T20:32:10.323Z,8.43
2019-03-31T20:34:53.339Z,10.47
2019-03-31T20:37:38.727Z,11.27
2019-03-31T20:40:23.882Z,9.33
2019-03-31T20:43:28.215Z,12.37
2019-03-31T20:45:55.019Z,15.07
2019-03-31T20:48:21.727Z,12.63
2019-03-31T20:50:48.419Z,10.67
2019-03-31T20:53:15.139Z,11.07
2019-03-31T20:55:42.135Z,10.47
2019-03-31T20:58:08.843Z,9.17
2019-03-31T21:00:35.652Z,10.03
2019-03-31T21:03:02.343Z,9.63
2019-03-31T21:05:29.047Z,11.43
2019-03-31T21:07:55.768Z,12.63
2019-03-31T21:10:22.579Z,11.97
2019-03-31T21:12:49.295Z,6.07
2019-03-31T21:15:16.261Z,10.50
2019-03-31T21:17:42.957Z,10.43
2019-03-31T21:20:09.875Z,12.73
2019-03-31T21:22:36.592Z,10.60
2019-03-31T21:25:04.080Z,8.63
2019-03-31T21:27:30.788Z,9.87
2019-03-31T21:29:57.483Z,6.50
2019-03-31T21:32:24.202Z,10.77
2019-03-31T21:34:51.211Z,9.57
2019-03-31T21:37:17.929Z,13.90
2019-03-31T21:39:44.678Z,11.37
2019-03-31T21:42:11.443Z,16.50
2019-03-31T21:44:38.148Z,11.30
2019-03-31T21:47:04.840Z,9.23
2019-03-31T21:49:31.555Z,10.87
2019-03-31T21:51:58.267Z,8.33
2019-03-31T21:54:24.962Z,12.40
2019-03-31T21:56:51.896Z,10.40
2019-03-31T21:59:18.609Z,13.20
2019-03-31T22:01:45.314Z,7.87
2019-03-31T22:04:12.039Z,9.43
2019-03-31T22:06:38.738Z,8.07
2019-03-31T22:09:07.484Z,8.97
2019-03-31T22:11:34.199Z,11.17
2019-03-31T22:14:00.907Z,9.40
2019-03-31T22:16:27.615Z,10.57
2019-03-31T22:18:54.326Z,9.77
2019-03-31T22:21:21.028Z,9.80
2019-03-31T22:23:57.714Z,7.60
2019-03-31T22:26:19.484Z,11.20
2019-03-31T22:28:44.963Z,9.53
2019-03-31T22:31:11.753Z,12.97
2019-03-31T22:33:38.718Z,10.30
2019-03-31T22:36:20.555Z,9.93
2019-03-31T22:38:47.389Z,8.60
2019-03-31T22:41:14.095Z,10.43
2019-03-31T22:43:40.792Z,11.80
2019-03-31T22:46:07.875Z,8.13
2019-03-31T22:48:34.569Z,9.77
2019-03-31T22:51:01.274Z,10.73
2019-03-31T22:53:27.979Z,9.47
2019-03-31T22:55:54.679Z,11.80
2019-03-31T22:58:21.396Z,11.60
2019-03-31T23:00:48.095Z,9.97
2019-03-31T23:03:14.791Z,9.67
2019-03-31T23:05:41.490Z,13.23
2019-03-31T23:08:08.207Z,9.87
2019-03-31T23:10:36.047Z,12.83
2019-03-31T23:13:02.776Z,10.50
2019-03-31T23:15:29.480Z,9.10
2019-03-31T23:17:56.191Z,10.53
2019-03-31T23:20:22.991Z,10.20
2019-03-31T23:22:49.687Z,9.77
2019-03-31T23:25:16.386Z,11.17
2019-03-31T23:27:43.592Z,16.47
2019-03-31T23:30:14.135Z,7.40
2019-03-31T23:32:40.891Z,10.37
2019-03-31T23:35:07.785Z,10.93
2019-03-31T23:37:34.596Z,6.23
2019-03-31T23:40:01.497Z,8.57
2019-03-31T23:42:28.183Z,8.50
2019-03-31T23:44:54.893Z,12.77
2019-03-31T23:47:21.600Z,7.97
2019-03-31T23:49:48.280Z,11.83
2019-03-31T23:52:14.967Z,10.73
2019-03-31T23:54:41.677Z,10.30
2019-03-31T23:57:08.379Z,7.27
2019-03-31T23:59:35.079Z,5.97
